Terminal Aerodrome Forecast
Issued by NWS

Home | Current Version | Previous Version | Graphics & Text | Print | Product List | Glossary On
Versions: 1 2 3 4 5 6 7 8 9 10 11 12 13 14 15 16 17 18 19 20 21 22
000
FTUS45 KGGW 010500
TAFOLF
TAF
KOLF 010520Z 0106/0206 29013KT P6SM -RA BKN100
     FM010900 29021G30KT P6SM VCSH BKN090
     FM011200 28020KT P6SM SCT080
     FM011800 28028G42KT P6SM BKN060
     FM020000 27024G38KT P6SM SCT180=

USA.gov is the U.S. government's official web portal to all federal, state and local government web resources and services.